createdAt,value
2022-07-25T00:00:47.858Z,466.0339
2022-07-25T00:05:49.829Z,444.81301
2022-07-25T00:10:51.554Z,333.87342
2022-07-25T00:15:53.388Z,354.66667
2022-07-25T00:20:55.026Z,519.70093
2022-07-25T00:25:56.597Z,290.06742
2022-07-25T00:30:58.274Z,292.0226
2022-07-25T00:35:59.988Z,288.13408
2022-07-25T00:41:01.615Z,256.69036
2022-07-25T00:46:03.278Z,199.60166
2022-07-25T00:51:04.952Z,189.41833
2022-07-25T00:56:06.607Z,253.54774
2022-07-25T01:01:08.299Z,229.18519
2022-07-25T01:06:10.132Z,200.66667
2022-07-25T01:11:11.772Z,202.82353
2022-07-25T01:16:13.510Z,245.96078
2022-07-25T01:21:15.199Z,183.68872
2022-07-25T01:26:16.831Z,169.64103
2022-07-25T01:31:18.534Z,176.45283
2022-07-25T01:36:20.189Z,160.14035
2022-07-25T01:41:22.723Z,172.99628
2022-07-25T01:46:24.527Z,244.4878
2022-07-25T01:51:26.387Z,288.13408
2022-07-25T01:56:28.644Z,344
2022-07-25T02:01:33.874Z,233.20188
2022-07-25T02:06:35.504Z,172.14815
2022-07-25T02:11:37.095Z,145.96721
2022-07-25T02:16:38.778Z,187.47826
2022-07-25T02:21:40.497Z,234.56604
2022-07-25T02:26:42.097Z,220.23318
2022-07-25T02:31:43.769Z,137.10345
2022-07-25T02:36:45.651Z,154.9589
2022-07-25T02:41:47.327Z,162.43972
2022-07-25T02:46:49.005Z,200.66667
2022-07-25T02:51:50.671Z,122.55072
2022-07-25T02:56:52.332Z,126.24852
2022-07-25T03:01:54.203Z,165.58273
2022-07-25T03:06:56.937Z,138.32177
2022-07-25T03:11:58.580Z,101.14286
2022-07-25T03:17:00.471Z,121.01149
2022-07-25T03:22:02.457Z,142.70968
2022-07-25T03:27:04.093Z,138.32177
2022-07-25T03:32:05.855Z,114.63712
2022-07-25T03:37:07.577Z,152.81356
2022-07-25T03:42:09.220Z,168.81752
2022-07-25T03:47:10.902Z,163.21708
2022-07-25T03:52:22.709Z,135.30435
2022-07-25T03:57:24.379Z,114.16575
2022-07-25T04:02:26.051Z,113.23077
2022-07-25T04:07:27.733Z,113.23077
2022-07-25T04:12:29.339Z,101.54476
2022-07-25T04:17:30.927Z,124.11696
2022-07-25T04:22:32.525Z,225.27854
2022-07-25T04:27:34.126Z,138.93671
2022-07-25T04:32:35.841Z,134.12346
2022-07-25T04:37:37.429Z,132.3792
2022-07-25T04:42:39.018Z,104.41667
2022-07-25T04:47:40.654Z,107.82979
2022-07-25T04:52:42.253Z,155.68385
2022-07-25T04:57:43.892Z,152.10811
2022-07-25T05:02:45.593Z,193.39271
2022-07-25T05:07:47.258Z,134.12346
2022-07-25T05:12:48.865Z,116.06704
2022-07-25T05:17:50.488Z,99.55556
2022-07-25T05:22:52.126Z,99.94937
2022-07-25T05:27:53.828Z,147.97351
2022-07-25T05:32:55.460Z,138.32177
2022-07-25T05:37:57.197Z,106.10526
2022-07-25T05:43:02.968Z,103.17313
2022-07-25T05:48:05.414Z,126.24852
2022-07-25T05:53:07.043Z,105.67979
2022-07-25T05:58:08.652Z,99.16373
2022-07-25T06:03:10.317Z,100.34518
2022-07-25T06:08:11.984Z,139.55556
2022-07-25T06:13:13.602Z,112.76712
2022-07-25T06:18:15.926Z,93.15254
2022-07-25T06:23:17.545Z,93.15254
2022-07-25T06:28:19.178Z,94.98039
2022-07-25T06:33:20.821Z,142.70968
2022-07-25T06:38:22.419Z,245.96078
2022-07-25T06:43:24.010Z,160.14035
2022-07-25T06:48:25.858Z,135.90031
2022-07-25T06:53:27.503Z,141.4359
2022-07-25T06:58:29.077Z,104
2022-07-25T07:03:30.758Z,103.17313
2022-07-25T07:08:32.645Z,95.72414
2022-07-25T07:13:34.494Z,88.60094
2022-07-25T07:18:36.191Z,85.2844
2022-07-25T07:23:37.819Z,82.42697
2022-07-25T07:28:41.696Z,81.5
2022-07-25T07:33:43.321Z,84.31891
2022-07-25T07:38:44.941Z,77.33333
2022-07-25T07:43:46.567Z,79.98234
2022-07-25T07:48:48.239Z,76.75862
2022-07-25T07:53:49.926Z,78.79212
2022-07-25T07:58:51.526Z,83.68254
2022-07-25T08:03:53.122Z,81.19376
2022-07-25T08:08:54.710Z,73.41176
2022-07-25T08:13:56.327Z,72.06653
2022-07-25T08:18:58.042Z,75.62393
2022-07-25T08:23:59.678Z,75.62393
2022-07-25T08:29:18.185Z,71.01031
2022-07-25T08:34:21.306Z,73.41176
2022-07-25T08:39:22.895Z,71.01031
2022-07-25T08:44:24.514Z,68.19355
2022-07-25T08:49:26.167Z,67.2
2022-07-25T08:54:27.798Z,67.69478
2022-07-25T08:59:29.443Z,65.02161
2022-07-25T09:04:31.051Z,64.07797
2022-07-25T09:09:32.664Z,65.49901
2022-07-25T09:14:34.236Z,66.22222
2022-07-25T09:19:35.841Z,66.95409
2022-07-25T09:24:37.459Z,66.95409
2022-07-25T09:29:39.031Z,64.78431
2022-07-25T09:34:40.665Z,70.48871
2022-07-25T09:39:46.125Z,67.94366
2022-07-25T09:44:48.529Z,73.95781
2022-07-25T09:49:50.172Z,71.53623
2022-07-25T09:54:51.855Z,65.25984
2022-07-25T09:59:53.465Z,76.18884
2022-07-25T10:04:55.183Z,66.70916
2022-07-25T10:09:56.853Z,66.95409
2022-07-25T10:14:58.460Z,68.19355
2022-07-25T10:20:00.096Z,75.06383
2022-07-25T10:25:01.826Z,73.41176
2022-07-25T10:30:03.513Z,72.33333
2022-07-25T10:35:05.125Z,68.19355
2022-07-25T10:40:06.735Z,68.44444
2022-07-25T10:45:08.363Z,65.9802
2022-07-25T10:50:29.708Z,66.70916
2022-07-25T10:55:42.032Z,69.97137
2022-07-25T11:00:43.661Z,66.22222
2022-07-25T11:05:45.257Z,65.9802
2022-07-25T11:10:47.052Z,83.36652
2022-07-25T11:15:48.642Z,65.9802
2022-07-25T11:20:50.283Z,61.55725
2022-07-25T11:25:51.882Z,63.14894
2022-07-25T11:30:53.481Z,64.3125
2022-07-25T11:35:55.102Z,64.78431
2022-07-25T11:40:56.707Z,62.46154
2022-07-25T11:45:58.378Z,61.11027
2022-07-25T11:51:00.069Z,62.46154
2022-07-25T11:56:14.414Z,67.94366
2022-07-25T12:01:27.420Z,68.19355
2022-07-25T12:06:29.032Z,63.37984
2022-07-25T12:11:30.679Z,64.07797
2022-07-25T12:16:32.348Z,71.27273
2022-07-25T12:21:34.243Z,72.87029
2022-07-25T12:26:35.875Z,76.47312
2022-07-25T12:31:37.516Z,68.94929
2022-07-25T12:36:39.081Z,67.69478
2022-07-25T12:41:40.695Z,65.73913
2022-07-25T12:46:47.375Z,63.61165
2022-07-25T12:51:54.714Z,65.49901
2022-07-25T12:56:59.661Z,65.25984
2022-07-25T13:02:01.369Z,67.44689
2022-07-25T13:07:03.061Z,71.80083
2022-07-25T13:12:04.706Z,72.06653
2022-07-25T13:17:06.377Z,70.22951
2022-07-25T13:22:08.025Z,70.74897
2022-07-25T13:27:09.715Z,65.49901
2022-07-25T13:32:11.359Z,73.14046
2022-07-25T13:37:13.028Z,79.38462
2022-07-25T13:42:14.712Z,79.38462
2022-07-25T13:47:16.312Z,73.95781
2022-07-25T13:52:17.936Z,81.80761
2022-07-25T13:57:19.737Z,78.20479
2022-07-25T14:02:21.434Z,91.36842
2022-07-25T14:07:23.069Z,103.17313
2022-07-25T14:12:24.653Z,106.10526
2022-07-25T14:17:30.167Z,121.52161
2022-07-25T14:22:32.236Z,118.50425
2022-07-25T14:27:33.811Z,104
2022-07-25T14:32:35.437Z,111.3913
2022-07-25T14:37:37.102Z,108.70588
2022-07-25T14:42:38.748Z,128.98498
2022-07-25T14:47:40.451Z,154.9589
2022-07-25T14:52:42.128Z,169.64103
2022-07-25T14:57:43.773Z,163.21708
2022-07-25T15:02:45.452Z,196.45902
2022-07-25T15:07:47.026Z,187.47826
2022-07-25T15:12:54.345Z,227.87097
2022-07-25T15:18:04.149Z,201.74059
2022-07-25T15:23:05.729Z,179.1145
2022-07-25T15:28:07.327Z,190.4
2022-07-25T15:33:08.996Z,179.1145
2022-07-25T15:38:10.674Z,178.22053
2022-07-25T15:43:12.270Z,187.47826
2022-07-25T15:48:13.885Z,208.37768
2022-07-25T15:53:15.638Z,273.41176
2022-07-25T15:58:17.237Z,208.37768
2022-07-25T16:03:19.012Z,195.42857
2022-07-25T16:08:20.632Z,210.66667
2022-07-25T16:13:22.334Z,230.51163
2022-07-25T16:18:23.937Z,248.9505
2022-07-25T16:23:25.550Z,261.52577
2022-07-25T16:28:27.356Z,237.33333
2022-07-25T16:33:29.644Z,248.9505
2022-07-25T16:38:31.281Z,276.97297
2022-07-25T16:43:32.919Z,336.35669
2022-07-25T16:48:34.833Z,278.78261
2022-07-25T16:53:36.497Z,261.52577
2022-07-25T16:58:38.323Z,306.35294
2022-07-25T17:03:40.389Z,280.61202
2022-07-25T17:08:41.949Z,368.82759
2022-07-25T17:13:43.565Z,276.97297
2022-07-25T17:18:45.375Z,243.02913
2022-07-25T17:23:46.957Z,261.52577
2022-07-25T17:28:48.528Z,245.96078
2022-07-25T17:33:50.167Z,294
2022-07-25T17:38:51.861Z,266.51309
2022-07-25T17:43:53.517Z,245.96078
2022-07-25T17:48:55.270Z,256.69036
2022-07-25T17:53:57.060Z,306.35294
2022-07-25T17:58:58.634Z,341.41935
2022-07-25T18:04:00.432Z,284.33149
2022-07-25T18:09:02.110Z,292.0226
2022-07-25T18:14:04.419Z,338.87179
2022-07-25T18:19:06.205Z,380.87943
2022-07-25T18:24:08.153Z,377.80282
2022-07-25T18:29:09.997Z,363.04762
2022-07-25T18:34:11.634Z,380.87943
2022-07-25T18:39:13.216Z,344
2022-07-25T18:44:14.814Z,276.97297
2022-07-25T18:49:16.851Z,229.18519
2022-07-25T18:54:18.496Z,341.41935
2022-07-25T18:59:20.290Z,259.89744
2022-07-25T19:04:21.912Z,278.78261
2022-07-25T19:09:23.563Z,250.46766
2022-07-25T19:14:25.212Z,269.92593
2022-07-25T19:19:26.950Z,273.41176
2022-07-25T19:24:28.619Z,250.46766
2022-07-25T19:29:30.225Z,255.11111
2022-07-25T19:34:31.845Z,247.44828
2022-07-25T19:39:33.469Z,259.89744
2022-07-25T19:44:35.129Z,276.97297
2022-07-25T19:49:36.721Z,278.78261
2022-07-25T19:54:38.479Z,276.97297
2022-07-25T19:59:40.074Z,271.65957
2022-07-25T20:04:41.812Z,238.73684
2022-07-25T20:09:43.425Z,202.82353
2022-07-25T20:14:45.024Z,211.82609
2022-07-25T20:19:46.824Z,208.37768
2022-07-25T20:24:48.748Z,224
2022-07-25T20:29:50.566Z,180.92308
2022-07-25T20:34:52.149Z,208.37768
2022-07-25T20:39:53.735Z,222.73303
2022-07-25T20:44:55.707Z,241.58454
2022-07-25T20:49:57.354Z,210.66667
2022-07-25T20:54:59.034Z,235.94313
2022-07-25T21:00:00.631Z,214.17544
2022-07-25T21:05:02.501Z,174.71161
2022-07-25T21:10:04.123Z,193.39271
2022-07-25T21:15:05.811Z,177.33333
2022-07-25T21:20:07.412Z,186.51969
2022-07-25T21:25:09.017Z,200.66667
2022-07-25T21:30:10.628Z,203.91561
2022-07-25T21:35:12.267Z,244.4878
2022-07-25T21:40:13.867Z,263.17098
2022-07-25T21:45:15.510Z,208.37768
2022-07-25T21:50:23.204Z,275.1828
2022-07-25T21:55:26.722Z,212.99563
2022-07-25T22:00:29.681Z,243.02913
2022-07-25T22:05:33.346Z,256.69036
2022-07-25T22:10:34.962Z,261.52577
2022-07-25T22:15:36.810Z,294
2022-07-25T22:20:38.402Z,247.44828
2022-07-25T22:25:40.018Z,247.44828
2022-07-25T22:30:41.590Z,326.6087
2022-07-25T22:35:43.281Z,308.49704
2022-07-25T22:40:45.586Z,331.42138
2022-07-25T22:45:47.299Z,338.87179
2022-07-25T22:50:49.118Z,363.04762
2022-07-25T22:55:50.745Z,377.80282
2022-07-25T23:00:52.429Z,253.54774
2022-07-25T23:05:54.114Z,329
2022-07-25T23:10:58.161Z,324.24691
2022-07-25T23:15:59.826Z,360.21622
2022-07-25T23:21:01.468Z,349.26316
2022-07-25T23:26:03.106Z,259.89744
2022-07-25T23:31:04.841Z,390.37681
2022-07-25T23:36:06.572Z,387.16547
2022-07-25T23:41:08.178Z,278.78261
2022-07-25T23:46:09.806Z,294
2022-07-25T23:51:13.187Z,298.02299
2022-07-25T23:56:20.170Z,357.42282
